createdAt,value
2019-05-29T00:00:48.113Z,66.10
2019-05-29T00:03:18.646Z,66.35
2019-05-29T00:05:47.781Z,66.62
2019-05-29T00:08:16.942Z,66.14
2019-05-29T00:10:46.072Z,66.12
2019-05-29T00:13:15.195Z,65.44
2019-05-29T00:15:44.309Z,65.36
2019-05-29T00:18:14.592Z,65.36
2019-05-29T00:20:43.764Z,66.06
2019-05-29T00:23:12.930Z,66.47
2019-05-29T00:25:42.084Z,66.61
2019-05-29T00:28:11.201Z,66.63
2019-05-29T00:30:40.325Z,66.84
2019-05-29T00:33:10.115Z,67.11
2019-05-29T00:35:39.294Z,67.26
2019-05-29T00:38:08.525Z,67.41
2019-05-29T00:40:37.620Z,67.43
2019-05-29T00:43:07.373Z,67.46
2019-05-29T00:45:36.592Z,67.50
2019-05-29T00:48:05.827Z,66.98
2019-05-29T00:50:35.107Z,66.95
2019-05-29T00:53:04.288Z,67.14
2019-05-29T00:55:33.406Z,67.79
2019-05-29T00:58:02.549Z,67.70
2019-05-29T01:00:31.664Z,67.90
2019-05-29T01:03:00.774Z,67.93
2019-05-29T01:05:29.922Z,68.00
2019-05-29T01:07:59.190Z,68.45
2019-05-29T01:10:28.311Z,68.52
2019-05-29T01:12:57.462Z,68.67
2019-05-29T01:15:26.608Z,68.69
2019-05-29T01:17:55.746Z,68.99
2019-05-29T01:20:24.891Z,69.22
2019-05-29T01:22:54.042Z,69.13
2019-05-29T01:25:23.188Z,69.24
2019-05-29T01:27:52.308Z,69.67
2019-05-29T01:30:21.466Z,69.48
2019-05-29T01:32:50.602Z,69.47
2019-05-29T01:35:20.050Z,69.70
2019-05-29T01:37:49.321Z,69.41
2019-05-29T01:40:22.123Z,69.54
2019-05-29T01:42:50.184Z,69.73
2019-05-29T01:45:19.548Z,69.93
2019-05-29T01:47:49.728Z,69.50
2019-05-29T01:50:19.647Z,69.12
2019-05-29T01:52:48.750Z,69.35
2019-05-29T01:55:18.112Z,69.65
2019-05-29T01:57:47.311Z,69.91
2019-05-29T02:00:36.928Z,70.30
2019-05-29T02:03:06.060Z,70.22
2019-05-29T02:05:35.232Z,70.76
2019-05-29T02:08:04.337Z,70.36
2019-05-29T02:10:33.483Z,70.47
2019-05-29T02:13:02.639Z,70.48
2019-05-29T02:15:33.944Z,70.09
2019-05-29T02:18:02.629Z,70.02
2019-05-29T02:20:31.731Z,70.15
2019-05-29T02:23:00.861Z,70.60
2019-05-29T02:25:29.970Z,70.71
2019-05-29T02:27:59.101Z,70.56
2019-05-29T02:30:30.629Z,70.75
2019-05-29T02:32:59.080Z,70.67
2019-05-29T02:35:29.626Z,71.47
2019-05-29T02:37:58.902Z,71.50
2019-05-29T02:40:29.883Z,71.51
2019-05-29T02:42:58.869Z,70.79
2019-05-29T02:45:50.290Z,70.49
2019-05-29T02:48:00.003Z,70.01
2019-05-29T02:50:31.115Z,70.00
2019-05-29T02:52:59.970Z,70.59
2019-05-29T02:55:30.788Z,70.44
2019-05-29T02:57:59.935Z,70.44
2019-05-29T03:00:54.994Z,70.68
2019-05-29T03:03:26.773Z,70.55
2019-05-29T03:05:56.961Z,70.46
2019-05-29T03:08:27.078Z,70.48
2019-05-29T03:10:56.925Z,70.62
2019-05-29T03:13:27.621Z,70.76
2019-05-29T03:16:09.513Z,70.91
2019-05-29T03:18:28.244Z,71.05
2019-05-29T03:20:57.746Z,70.96
2019-05-29T03:23:28.835Z,71.48
2019-05-29T03:25:57.701Z,71.38
2019-05-29T03:28:27.610Z,71.36
2019-05-29T03:30:56.846Z,71.34
2019-05-29T03:33:28.489Z,71.25
2019-05-29T03:35:56.884Z,71.56
2019-05-29T03:38:26.186Z,71.52
2019-05-29T03:40:55.351Z,71.84
2019-05-29T03:43:26.068Z,71.90
2019-05-29T03:45:55.296Z,71.84
2019-05-29T03:48:25.981Z,71.90
2019-05-29T03:50:58.437Z,71.79
2019-05-29T03:53:29.059Z,71.91
2019-05-29T03:55:58.447Z,71.97
2019-05-29T03:58:28.873Z,72.22
2019-05-29T04:00:58.592Z,71.93
2019-05-29T04:03:28.955Z,71.79
2019-05-29T04:05:58.370Z,71.98
2019-05-29T04:08:29.284Z,72.09
2019-05-29T04:10:58.997Z,72.08
2019-05-29T04:13:29.606Z,72.35
2019-05-29T04:16:01.149Z,72.24
2019-05-29T04:18:31.816Z,72.48
2019-05-29T04:21:02.682Z,72.27
2019-05-29T04:23:36.128Z,72.36
2019-05-29T04:26:05.455Z,72.72
2019-05-29T04:28:35.305Z,72.77
2019-05-29T04:31:05.462Z,72.75
2019-05-29T04:33:35.307Z,72.91
2019-05-29T04:36:05.437Z,73.26
2019-05-29T04:38:36.135Z,72.95
2019-05-29T04:41:05.412Z,73.09
2019-05-29T04:43:35.452Z,73.23
2019-05-29T04:46:05.391Z,73.30
2019-05-29T04:48:36.210Z,73.28
2019-05-29T04:51:05.381Z,73.31
2019-05-29T04:53:35.522Z,73.04
2019-05-29T04:56:04.791Z,73.39
2019-05-29T04:58:34.850Z,73.13
2019-05-29T05:01:04.038Z,73.09
2019-05-29T05:03:33.326Z,73.19
2019-05-29T05:06:02.426Z,73.58
2019-05-29T05:08:31.543Z,73.89
2019-05-29T05:11:00.674Z,73.91
2019-05-29T05:13:29.874Z,74.26
2019-05-29T05:16:19.465Z,73.87
2019-05-29T05:18:48.603Z,73.69
2019-05-29T05:21:17.738Z,73.57
2019-05-29T05:23:46.911Z,73.46
2019-05-29T05:26:16.068Z,73.45
2019-05-29T05:28:46.430Z,73.34
2019-05-29T05:31:15.913Z,73.16
2019-05-29T05:33:45.033Z,72.98
2019-05-29T05:36:14.184Z,72.87
2019-05-29T05:38:43.292Z,73.77
2019-05-29T05:41:12.439Z,73.57
2019-05-29T05:43:41.660Z,73.35
2019-05-29T05:46:10.801Z,73.32
2019-05-29T05:48:39.935Z,72.96
2019-05-29T05:51:09.025Z,73.19
2019-05-29T05:53:39.437Z,73.19
2019-05-29T05:56:08.595Z,72.80
2019-05-29T05:58:37.876Z,72.64
2019-05-29T06:01:07.005Z,72.85
2019-05-29T06:03:36.159Z,72.42
2019-05-29T06:06:05.398Z,72.02
2019-05-29T06:08:34.521Z,71.82
2019-05-29T06:11:03.730Z,71.97
2019-05-29T06:13:32.879Z,71.18
2019-05-29T06:16:02.000Z,70.78
2019-05-29T06:18:32.285Z,71.08
2019-05-29T06:21:01.536Z,71.42
2019-05-29T06:23:30.664Z,71.27
2019-05-29T06:26:00.255Z,69.97
2019-05-29T06:28:29.483Z,69.77
2019-05-29T06:30:58.640Z,69.22
2019-05-29T06:33:27.896Z,68.35
2019-05-29T06:35:57.045Z,68.48
2019-05-29T06:38:26.202Z,68.48
2019-05-29T06:40:55.307Z,65.68
2019-05-29T06:43:25.769Z,64.26
2019-05-29T06:45:55.359Z,64.06
2019-05-29T06:48:42.565Z,62.45
2019-05-29T06:50:59.823Z,60.91
2019-05-29T06:53:28.996Z,62.64
2019-05-29T06:55:59.389Z,62.98
2019-05-29T06:58:29.423Z,64.16
2019-05-29T07:00:58.599Z,63.65
2019-05-29T07:03:27.736Z,63.51
2019-05-29T07:05:56.886Z,63.22
2019-05-29T07:08:38.204Z,63.43
2019-05-29T07:10:56.857Z,62.83
2019-05-29T07:13:25.986Z,64.04
2019-05-29T07:15:55.094Z,64.26
2019-05-29T07:18:24.257Z,64.22
2019-05-29T07:20:53.423Z,63.98
2019-05-29T07:23:22.551Z,63.92
2019-05-29T07:25:51.690Z,61.53
2019-05-29T07:28:20.850Z,58.64
2019-05-29T07:31:00.508Z,60.49
2019-05-29T07:33:20.855Z,57.92
2019-05-29T07:35:49.974Z,58.42
2019-05-29T07:38:19.163Z,59.28
2019-05-29T07:40:50.079Z,58.79
2019-05-29T07:43:19.225Z,57.93
2019-05-29T07:45:48.371Z,57.11
2019-05-29T07:48:18.028Z,56.60
2019-05-29T07:50:48.124Z,55.95
2019-05-29T07:53:17.503Z,53.96
2019-05-29T07:55:46.803Z,52.84
2019-05-29T07:58:15.871Z,53.58
2019-05-29T08:01:06.836Z,52.84
2019-05-29T08:03:16.037Z,53.39
2019-05-29T08:05:49.194Z,53.15
2019-05-29T08:08:16.018Z,50.95
2019-05-29T08:10:45.545Z,50.99
2019-05-29T08:13:14.801Z,50.72
2019-05-29T08:15:57.607Z,50.98
2019-05-29T08:18:14.973Z,49.91
2019-05-29T08:20:44.052Z,49.65
2019-05-29T08:23:13.180Z,49.21
2019-05-29T08:25:43.457Z,46.87
2019-05-29T08:28:12.734Z,47.20
2019-05-29T08:30:47.688Z,43.50
2019-05-29T08:33:12.823Z,44.88
2019-05-29T08:35:43.059Z,45.98
2019-05-29T08:38:12.335Z,44.92
2019-05-29T08:40:41.488Z,44.42
2019-05-29T08:43:10.664Z,43.55
2019-05-29T08:45:39.846Z,43.53
2019-05-29T08:48:08.980Z,42.29
2019-05-29T08:50:38.178Z,42.10
2019-05-29T08:53:07.338Z,41.42
2019-05-29T08:55:36.574Z,41.76
2019-05-29T08:58:05.694Z,40.68
2019-05-29T09:00:34.928Z,40.52
2019-05-29T09:03:04.197Z,40.17
2019-05-29T09:05:33.384Z,40.20
2019-05-29T09:08:02.581Z,40.24
2019-05-29T09:10:31.747Z,40.63
2019-05-29T09:13:04.843Z,40.19
2019-05-29T09:15:31.761Z,40.11
2019-05-29T09:18:00.902Z,40.16
2019-05-29T09:20:57.378Z,40.41
2019-05-29T09:23:00.983Z,39.26
2019-05-29T09:25:30.177Z,37.34
2019-05-29T09:27:59.431Z,36.51
2019-05-29T09:30:28.601Z,37.66
2019-05-29T09:32:57.820Z,38.21
2019-05-29T09:35:27.078Z,37.95
2019-05-29T09:37:56.295Z,36.77
2019-05-29T09:40:25.535Z,36.97
2019-05-29T09:42:54.841Z,37.26
2019-05-29T09:45:24.038Z,37.66
2019-05-29T09:47:53.310Z,38.30
2019-05-29T09:50:23.925Z,38.09
2019-05-29T09:52:55.340Z,37.98
2019-05-29T09:55:24.389Z,38.71
2019-05-29T09:57:54.180Z,39.14
2019-05-29T10:00:26.382Z,38.60
2019-05-29T10:02:55.700Z,38.36
2019-05-29T10:05:24.852Z,38.24
2019-05-29T10:07:55.079Z,38.99
2019-05-29T10:10:25.575Z,38.13
2019-05-29T10:12:55.405Z,38.98
2019-05-29T10:15:25.809Z,38.35
2019-05-29T10:17:55.854Z,37.92
2019-05-29T10:20:26.985Z,37.50
2019-05-29T10:22:57.159Z,37.71
2019-05-29T10:25:26.368Z,37.60
2019-05-29T10:27:55.584Z,36.31
2019-05-29T10:30:25.117Z,37.93
2019-05-29T10:32:54.408Z,38.19
2019-05-29T10:35:23.669Z,38.25
2019-05-29T10:37:53.127Z,37.40
2019-05-29T10:40:22.712Z,37.29
2019-05-29T10:42:53.406Z,35.94
2019-05-29T10:45:22.768Z,34.50
2019-05-29T10:47:52.482Z,32.77
2019-05-29T10:50:23.337Z,34.84
2019-05-29T10:52:52.584Z,36.26
2019-05-29T10:55:23.736Z,36.88
2019-05-29T10:57:53.354Z,36.47
2019-05-29T11:00:24.206Z,36.96
2019-05-29T11:02:55.370Z,35.63
2019-05-29T11:05:24.378Z,34.93
2019-05-29T11:07:54.008Z,34.57
2019-05-29T11:10:23.515Z,33.25
2019-05-29T11:12:52.779Z,30.96
2019-05-29T11:15:22.534Z,31.15
2019-05-29T11:17:52.844Z,33.77
2019-05-29T11:20:23.374Z,35.01
2019-05-29T11:22:53.578Z,33.87
2019-05-29T11:25:27.415Z,33.88
2019-05-29T11:27:54.833Z,34.58
2019-05-29T11:30:24.467Z,35.00
2019-05-29T11:32:55.611Z,35.40
2019-05-29T11:35:24.708Z,35.10
2019-05-29T11:37:54.970Z,33.09
2019-05-29T11:40:24.150Z,32.07
2019-05-29T11:42:54.693Z,32.50
2019-05-29T11:45:24.027Z,33.73
2019-05-29T11:47:53.938Z,32.71
2019-05-29T11:50:24.108Z,33.40
2019-05-29T11:52:54.407Z,33.83
2019-05-29T11:55:42.822Z,34.17
2019-05-29T11:58:29.777Z,34.46
2019-05-29T12:00:43.129Z,34.08
2019-05-29T12:03:12.391Z,34.46
2019-05-29T12:05:41.556Z,34.48
2019-05-29T12:08:10.913Z,34.15
2019-05-29T12:10:40.053Z,33.79
2019-05-29T12:13:09.281Z,33.69
2019-05-29T12:15:38.476Z,31.87
2019-05-29T12:18:22.723Z,30.60
2019-05-29T12:20:38.688Z,31.50
2019-05-29T12:23:22.915Z,30.88
2019-05-29T12:25:38.861Z,29.36
2019-05-29T12:28:08.165Z,31.48
2019-05-29T12:30:37.620Z,33.30
2019-05-29T12:33:06.932Z,33.78
2019-05-29T12:35:36.098Z,33.91
2019-05-29T12:38:05.298Z,33.52
2019-05-29T12:40:34.472Z,32.75
2019-05-29T12:43:03.858Z,33.24
2019-05-29T12:45:33.128Z,32.81
2019-05-29T12:48:06.569Z,32.93
2019-05-29T12:50:34.636Z,33.40
2019-05-29T12:53:04.289Z,32.05
2019-05-29T12:55:33.724Z,31.28
2019-05-29T12:58:04.322Z,31.47
2019-05-29T13:00:33.754Z,29.58
2019-05-29T13:03:03.236Z,31.23
2019-05-29T13:05:33.927Z,31.99
2019-05-29T13:08:03.621Z,31.79
2019-05-29T13:10:34.225Z,31.54
2019-05-29T13:13:08.504Z,30.65
2019-05-29T13:15:34.241Z,31.08
2019-05-29T13:18:09.080Z,31.17
2019-05-29T13:20:34.288Z,30.78
2019-05-29T13:23:06.742Z,29.33
2019-05-29T13:25:34.535Z,30.42
2019-05-29T13:28:04.770Z,30.19
2019-05-29T13:30:34.644Z,29.60
2019-05-29T13:33:07.444Z,27.71
2019-05-29T13:35:34.765Z,27.96
2019-05-29T13:38:05.128Z,27.64
2019-05-29T13:40:34.391Z,28.83
2019-05-29T13:43:11.482Z,29.51
2019-05-29T13:45:34.521Z,28.66
2019-05-29T13:48:05.241Z,28.98
2019-05-29T13:50:34.706Z,27.92
2019-05-29T13:53:04.183Z,28.22
2019-05-29T13:55:34.611Z,29.30
2019-05-29T13:58:03.890Z,29.75
2019-05-29T14:00:34.942Z,30.12
2019-05-29T14:03:04.890Z,28.18
2019-05-29T14:05:35.129Z,30.14
2019-05-29T14:08:04.820Z,27.82
2019-05-29T14:10:34.426Z,28.83
2019-05-29T14:13:03.617Z,30.02
2019-05-29T14:15:32.836Z,31.07
2019-05-29T14:18:02.870Z,31.27
2019-05-29T14:20:32.200Z,30.41
2019-05-29T14:23:01.489Z,29.81
2019-05-29T14:25:30.718Z,29.90
2019-05-29T14:28:00.772Z,30.37
2019-05-29T14:30:30.089Z,30.00
2019-05-29T14:32:59.332Z,28.80
2019-05-29T14:35:28.549Z,27.77
2019-05-29T14:37:57.751Z,28.29
2019-05-29T14:40:26.951Z,28.27
2019-05-29T14:42:56.140Z,28.54
2019-05-29T14:45:25.513Z,29.02
2019-05-29T14:47:57.626Z,29.83
2019-05-29T14:50:26.808Z,28.66
2019-05-29T14:52:56.001Z,30.01
2019-05-29T14:55:25.177Z,29.88
2019-05-29T14:57:54.366Z,30.49
2019-05-29T15:00:25.666Z,29.86
2019-05-29T15:02:54.765Z,30.09
2019-05-29T15:05:24.569Z,30.18
2019-05-29T15:07:53.865Z,29.39
2019-05-29T15:10:27.573Z,28.81
2019-05-29T15:12:57.789Z,28.73
2019-05-29T15:15:25.256Z,27.60
2019-05-29T15:17:54.504Z,26.35
2019-05-29T15:20:23.724Z,27.91
2019-05-29T15:22:52.993Z,28.92
2019-05-29T15:25:24.398Z,28.79
2019-05-29T15:27:53.399Z,28.78
2019-05-29T15:30:23.785Z,28.45
2019-05-29T15:32:53.254Z,27.12
2019-05-29T15:35:22.470Z,27.78
2019-05-29T15:37:51.665Z,27.62
2019-05-29T15:40:20.914Z,29.56
2019-05-29T15:42:50.112Z,30.03
2019-05-29T15:45:20.967Z,29.94
2019-05-29T15:47:50.336Z,30.00
2019-05-29T15:50:19.694Z,30.31
2019-05-29T15:52:48.884Z,29.35
2019-05-29T15:55:28.405Z,29.33
2019-05-29T15:57:49.142Z,29.60
2019-05-29T16:00:18.548Z,28.41
2019-05-29T16:02:49.409Z,29.13
2019-05-29T16:05:21.686Z,29.02
2019-05-29T16:07:50.239Z,28.90
2019-05-29T16:10:20.983Z,28.35
2019-05-29T16:12:50.321Z,28.30
2019-05-29T16:15:22.878Z,28.82
2019-05-29T16:17:52.501Z,29.31
2019-05-29T16:20:22.826Z,28.96
2019-05-29T16:22:52.166Z,28.82
2019-05-29T16:25:37.880Z,28.64
2019-05-29T16:27:52.371Z,28.09
2019-05-29T16:30:21.958Z,27.69
2019-05-29T16:32:51.361Z,27.99
2019-05-29T16:35:21.896Z,27.62
2019-05-29T16:37:51.062Z,26.38
2019-05-29T16:40:21.856Z,27.21
2019-05-29T16:42:51.152Z,28.02
2019-05-29T16:45:20.573Z,27.93
2019-05-29T16:47:49.804Z,28.14
2019-05-29T16:50:21.240Z,28.54
2019-05-29T16:52:50.451Z,28.56
2019-05-29T16:55:22.967Z,30.07
2019-05-29T16:57:50.590Z,27.74
2019-05-29T17:00:21.707Z,28.74
2019-05-29T17:02:51.143Z,29.05
2019-05-29T17:05:22.258Z,29.91
2019-05-29T17:07:51.561Z,29.44
2019-05-29T17:10:25.544Z,30.56
2019-05-29T17:12:54.861Z,29.97
2019-05-29T17:15:24.740Z,29.09
2019-05-29T17:17:54.094Z,30.43
2019-05-29T17:20:39.002Z,30.15
2019-05-29T17:23:07.259Z,30.58
2019-05-29T17:25:36.412Z,31.43
2019-05-29T17:28:05.783Z,31.02
2019-05-29T17:30:35.315Z,31.37
2019-05-29T17:33:04.613Z,29.85
2019-05-29T17:35:33.814Z,30.45
2019-05-29T17:38:03.061Z,30.11
2019-05-29T17:40:32.228Z,30.43
2019-05-29T17:43:02.619Z,30.46
2019-05-29T17:45:31.806Z,31.30
2019-05-29T17:48:00.997Z,31.72
2019-05-29T17:50:30.207Z,31.35
2019-05-29T17:52:59.378Z,31.94
2019-05-29T17:55:28.609Z,31.26
2019-05-29T17:57:57.841Z,31.02
2019-05-29T18:00:27.145Z,31.98
2019-05-29T18:02:56.360Z,31.79
2019-05-29T18:05:26.650Z,31.69
2019-05-29T18:07:55.962Z,33.15
2019-05-29T18:10:25.746Z,35.00
2019-05-29T18:12:55.011Z,35.47
2019-05-29T18:15:25.656Z,36.69
2019-05-29T18:17:55.010Z,37.78
2019-05-29T18:20:25.702Z,38.07
2019-05-29T18:22:55.057Z,37.97
2019-05-29T18:25:24.299Z,38.15
2019-05-29T18:27:53.474Z,38.43
2019-05-29T18:30:22.814Z,38.56
2019-05-29T18:32:52.014Z,38.87
2019-05-29T18:35:21.425Z,39.53
2019-05-29T18:37:50.704Z,39.40
2019-05-29T18:40:20.684Z,39.69
2019-05-29T18:42:49.848Z,40.67
2019-05-29T18:45:21.548Z,41.21
2019-05-29T18:47:50.241Z,41.63
2019-05-29T18:50:21.504Z,42.03
2019-05-29T18:52:51.078Z,42.35
2019-05-29T18:55:20.751Z,42.72
2019-05-29T18:57:50.075Z,43.43
2019-05-29T19:00:21.146Z,44.35
2019-05-29T19:02:50.452Z,44.71
2019-05-29T19:05:19.741Z,45.43
2019-05-29T19:07:48.936Z,46.20
2019-05-29T19:10:18.251Z,46.36
2019-05-29T19:12:47.549Z,46.53
2019-05-29T19:15:17.116Z,47.33
2019-05-29T19:17:46.324Z,48.02
2019-05-29T19:20:15.830Z,48.90
2019-05-29T19:22:45.152Z,49.22
2019-05-29T19:25:14.526Z,49.26
2019-05-29T19:27:43.771Z,49.59
2019-05-29T19:30:13.338Z,49.40
2019-05-29T19:32:42.530Z,49.19
2019-05-29T19:35:12.038Z,49.07
2019-05-29T19:37:41.276Z,49.13
2019-05-29T19:40:10.599Z,48.91
2019-05-29T19:42:39.782Z,48.96
2019-05-29T19:45:10.310Z,49.51
2019-05-29T19:47:39.491Z,49.98
2019-05-29T19:50:11.354Z,50.40
2019-05-29T19:52:39.936Z,50.34
2019-05-29T19:55:09.917Z,50.63
2019-05-29T19:57:54.810Z,50.89
2019-05-29T20:00:10.627Z,50.85
2019-05-29T20:02:40.015Z,50.59
2019-05-29T20:05:10.053Z,50.69
2019-05-29T20:07:39.240Z,51.13
2019-05-29T20:10:09.476Z,51.45
2019-05-29T20:12:38.700Z,51.63
2019-05-29T20:15:08.188Z,51.79
2019-05-29T20:17:38.488Z,51.49
2019-05-29T20:20:08.438Z,51.55
2019-05-29T20:22:38.971Z,51.59
2019-05-29T20:25:13.382Z,51.70
2019-05-29T20:27:41.004Z,51.97
2019-05-29T20:30:16.483Z,52.20
2019-05-29T20:32:45.689Z,52.65
2019-05-29T20:35:15.242Z,53.27
2019-05-29T20:37:44.480Z,53.51
2019-05-29T20:40:14.520Z,53.57
2019-05-29T20:42:43.692Z,53.42
2019-05-29T20:45:13.291Z,53.94
2019-05-29T20:47:42.547Z,54.49
2019-05-29T20:50:12.342Z,54.79
2019-05-29T20:52:41.535Z,54.96
2019-05-29T20:55:11.273Z,54.78
2019-05-29T20:57:40.500Z,54.63
2019-05-29T21:00:10.266Z,55.10
2019-05-29T21:02:40.455Z,55.35
2019-05-29T21:05:09.993Z,55.30
2019-05-29T21:07:39.237Z,55.68
2019-05-29T21:10:08.549Z,55.80
2019-05-29T21:12:41.954Z,55.25
2019-05-29T21:15:09.333Z,55.01
2019-05-29T21:17:39.858Z,55.19
2019-05-29T21:20:09.687Z,55.68
2019-05-29T21:22:38.907Z,55.52
2019-05-29T21:25:12.661Z,55.78
2019-05-29T21:27:43.898Z,55.87
2019-05-29T21:30:12.056Z,56.24
2019-05-29T21:32:41.940Z,56.37
2019-05-29T21:35:11.239Z,56.71
2019-05-29T21:37:40.459Z,56.92
2019-05-29T21:40:09.856Z,57.22
2019-05-29T21:42:39.053Z,57.41
2019-05-29T21:45:08.451Z,57.65
2019-05-29T21:47:38.881Z,58.10
2019-05-29T21:50:08.514Z,58.58
2019-05-29T21:52:37.719Z,58.68
2019-05-29T21:55:07.569Z,58.34
2019-05-29T21:57:37.736Z,58.31
2019-05-29T22:00:10.860Z,58.66
2019-05-29T22:02:40.313Z,58.82
2019-05-29T22:05:09.995Z,59.05
2019-05-29T22:07:40.582Z,59.29
2019-05-29T22:10:10.843Z,59.71
2019-05-29T22:12:40.028Z,59.95
2019-05-29T22:15:09.333Z,60.02
2019-05-29T22:17:38.610Z,60.18
2019-05-29T22:20:08.043Z,60.32
2019-05-29T22:22:37.218Z,60.23
2019-05-29T22:25:06.742Z,60.19
2019-05-29T22:27:35.980Z,60.28
2019-05-29T22:30:06.741Z,60.38
2019-05-29T22:32:35.946Z,60.58
2019-05-29T22:35:05.323Z,60.82
2019-05-29T22:37:34.563Z,60.97
2019-05-29T22:40:03.794Z,61.00
2019-05-29T22:42:33.022Z,61.20
2019-05-29T22:45:02.380Z,61.32
2019-05-29T22:47:31.690Z,61.52
2019-05-29T22:50:02.207Z,61.91
2019-05-29T22:52:31.556Z,62.13
2019-05-29T22:55:02.228Z,62.22
2019-05-29T22:57:31.669Z,62.06
2019-05-29T23:00:02.343Z,62.10
2019-05-29T23:02:31.738Z,62.07
2019-05-29T23:05:00.937Z,62.28
2019-05-29T23:07:30.148Z,62.49
2019-05-29T23:10:00.590Z,62.58
2019-05-29T23:12:29.904Z,62.75
2019-05-29T23:14:59.140Z,62.88
2019-05-29T23:17:28.339Z,63.10
2019-05-29T23:19:58.566Z,63.22
2019-05-29T23:22:27.797Z,63.44
2019-05-29T23:24:57.058Z,63.55
2019-05-29T23:27:26.266Z,63.65
2019-05-29T23:29:56.777Z,63.54
2019-05-29T23:32:26.010Z,63.83
2019-05-29T23:34:55.204Z,64.06
2019-05-29T23:37:24.426Z,64.21
2019-05-29T23:39:53.664Z,64.20
2019-05-29T23:42:22.848Z,64.18
2019-05-29T23:44:52.764Z,64.20
2019-05-29T23:47:22.941Z,64.33
2019-05-29T23:49:53.365Z,64.35
2019-05-29T23:52:22.700Z,64.31
2019-05-29T23:54:51.898Z,64.28
2019-05-29T23:57:21.338Z,64.40
